Time;durP1;ratioP1;P1;durP2;ratioP2;P2;SDS_P1;SDS_P2;PMS_P1;PMS_P2;Temp;Humidity;BMP_temperature;BMP_pressure;BME280_temperature;BME280_humidity;BME280_pressure;Samples;Min_cycle;Max_cycle;Signal;HPM_P1;HPM_P2
2023/09/04 00:00:45;;;;;;;4.60;3.03;;;22.60;99.90;;;;;;10171339;28;20036;-67
2023/09/04 00:05:35;;;;;;;4.45;3.47;;;22.70;99.90;;;;;;10174216;28;20035;-67
2023/09/04 00:10:26;;;;;;;3.58;2.70;;;22.60;99.90;;;;;;10169811;28;20016;-67
2023/09/04 00:15:17;;;;;;;4.75;3.20;;;22.50;99.90;;;;;;10169587;28;20028;-67
2023/09/04 00:20:08;;;;;;;6.05;3.33;;;22.50;99.90;;;;;;10177005;28;20028;-67
2023/09/04 00:24:59;;;;;;;4.15;2.80;;;22.40;99.90;;;;;;10182676;28;20062;-67
2023/09/04 00:29:49;;;;;;;5.63;3.45;;;22.40;99.90;;;;;;10181764;28;20385;-67
2023/09/04 00:34:40;;;;;;;4.20;3.22;;;22.40;99.90;;;;;;10182668;28;20472;-67
2023/09/04 00:39:31;;;;;;;5.70;3.42;;;22.40;99.90;;;;;;10179401;28;20031;-66
2023/09/04 00:44:21;;;;;;;3.45;2.70;;;22.50;99.90;;;;;;10180512;28;20062;-67
2023/09/04 00:49:14;;;;;;;5.40;2.65;;;22.30;99.90;;;;;;10180153;28;20020;-67
2023/09/04 00:54:05;;;;;;;4.75;2.78;;;22.30;99.90;;;;;;10180780;28;20153;-66
2023/09/04 00:58:56;;;;;;;3.63;2.85;;;22.20;99.90;;;;;;10177048;28;20028;-66
2023/09/04 01:03:47;;;;;;;3.80;3.13;;;22.10;99.90;;;;;;10173782;28;20098;-67
2023/09/04 01:08:38;;;;;;;4.72;3.05;;;21.90;99.90;;;;;;10177743;28;20493;-67
2023/09/04 01:13:39;;;;;;;4.57;2.53;;;21.90;99.90;;;;;;10178923;28;20032;-66
2023/09/04 01:18:30;;;;;;;3.85;2.90;;;21.90;99.90;;;;;;10161307;28;20032;-66
2023/09/04 01:23:21;;;;;;;3.65;2.75;;;21.80;99.90;;;;;;10174869;28;20529;-67
2023/09/04 01:28:29;;;;;;;4.38;2.50;;;21.80;99.90;;;;;;10171731;28;20031;-66
2023/09/04 01:33:27;;;;;;;3.78;2.67;;;21.70;99.90;;;;;;10177055;28;20016;-67
2023/09/04 01:38:18;;;;;;;3.33;2.70;;;21.60;99.90;;;;;;10178467;28;20397;-66
2023/09/04 01:43:08;;;;;;;5.47;2.83;;;21.50;99.90;;;;;;10179584;28;20095;-66
2023/09/04 01:47:59;;;;;;;5.55;2.60;;;21.50;99.90;;;;;;10165881;28;20059;-67
2023/09/04 01:52:49;;;;;;;3.42;2.80;;;21.60;99.90;;;;;;10182287;28;20048;-66
2023/09/04 01:57:40;;;;;;;4.57;2.63;;;21.50;99.90;;;;;;10180249;28;20036;-66
2023/09/04 02:02:30;;;;;;;4.63;2.83;;;21.60;99.90;;;;;;10176998;28;20063;-66
2023/09/04 02:07:21;;;;;;;4.38;2.72;;;21.50;99.90;;;;;;10179571;28;20502;-66
2023/09/04 02:12:12;;;;;;;5.15;2.70;;;21.50;99.90;;;;;;10178661;28;20509;-66
2023/09/04 02:17:03;;;;;;;3.28;2.65;;;21.50;99.90;;;;;;10173848;28;20024;-67
2023/09/04 02:21:53;;;;;;;2.85;2.20;;;21.40;99.90;;;;;;10174782;28;20532;-67
2023/09/04 02:26:44;;;;;;;4.60;2.97;;;21.40;99.90;;;;;;10177734;28;20046;-67
2023/09/04 02:31:35;;;;;;;2.53;2.03;;;21.30;99.90;;;;;;10177479;28;20040;-67
2023/09/04 02:36:26;;;;;;;4.53;2.30;;;21.30;99.90;;;;;;10159143;28;20032;-67
2023/09/04 02:41:16;;;;;;;3.90;2.40;;;21.20;99.90;;;;;;10171449;28;20120;-67
2023/09/04 02:46:08;;;;;;;4.65;2.72;;;21.20;99.90;;;;;;10181155;28;20046;-67
2023/09/04 02:50:58;;;;;;;3.80;2.60;;;21.20;99.90;;;;;;10174709;28;20059;-67
2023/09/04 02:55:49;;;;;;;4.93;2.80;;;21.00;99.90;;;;;;10175874;28;20354;-67
2023/09/04 03:00:41;;;;;;;3.97;2.10;;;20.90;99.90;;;;;;10175002;28;20656;-67
2023/09/04 03:05:31;;;;;;;3.50;2.42;;;21.00;99.90;;;;;;10152107;28;20121;-67
2023/09/04 03:10:22;;;;;;;3.85;2.50;;;20.80;99.90;;;;;;10177471;28;20479;-68
2023/09/04 03:15:12;;;;;;;2.92;2.22;;;20.80;99.90;;;;;;10178101;28;20026;-68
2023/09/04 03:20:05;;;;;;;3.90;2.50;;;20.80;99.90;;;;;;10177627;28;20494;-67
2023/09/04 03:24:55;;;;;;;3.65;2.35;;;20.80;99.90;;;;;;10172905;28;20499;-67
2023/09/04 03:29:46;;;;;;;3.53;2.22;;;20.80;99.90;;;;;;10171689;28;20032;-67
2023/09/04 03:34:37;;;;;;;3.58;3.20;;;20.70;99.90;;;;;;10172708;28;20032;-67
2023/09/04 03:39:28;;;;;;;4.10;2.50;;;20.70;99.90;;;;;;10174375;28;20031;-67
2023/09/04 03:44:19;;;;;;;3.10;2.53;;;20.60;99.90;;;;;;10175704;28;20512;-67
2023/09/04 03:49:09;;;;;;;4.75;3.25;;;20.50;99.90;;;;;;10170687;28;20401;-68
2023/09/04 03:54:03;;;;;;;3.15;2.15;;;20.40;99.90;;;;;;10180738;28;20032;-67
2023/09/04 03:58:54;;;;;;;4.10;2.33;;;20.30;99.90;;;;;;10180675;28;20028;-67
2023/09/04 04:03:44;;;;;;;3.67;2.70;;;20.30;99.90;;;;;;10161900;28;20032;-67
2023/09/04 04:08:35;;;;;;;3.28;2.40;;;20.20;99.90;;;;;;10180085;28;20043;-68
2023/09/04 04:13:26;;;;;;;4.00;2.55;;;20.30;99.90;;;;;;10179088;28;20570;-68
2023/09/04 04:18:17;;;;;;;4.72;2.28;;;20.30;99.90;;;;;;10179035;28;20020;-68
2023/09/04 04:23:07;;;;;;;4.03;2.28;;;20.20;99.90;;;;;;10184841;28;20048;-67
2023/09/04 04:27:58;;;;;;;3.40;2.88;;;20.10;99.90;;;;;;10182902;28;20039;-66
2023/09/04 04:32:50;;;;;;;5.97;3.25;;;20.00;99.90;;;;;;10182544;28;20050;-66
2023/09/04 04:37:41;;;;;;;3.97;2.40;;;20.10;99.90;;;;;;10180625;28;20328;-66
2023/09/04 04:42:31;;;;;;;5.03;3.08;;;20.00;99.90;;;;;;10180253;28;20604;-66
2023/09/04 04:47:22;;;;;;;4.18;2.88;;;20.10;99.90;;;;;;10179501;28;20107;-66
2023/09/04 04:52:13;;;;;;;3.88;3.03;;;20.00;99.90;;;;;;10181909;28;20028;-67
2023/09/04 04:57:04;;;;;;;5.05;2.40;;;20.00;99.90;;;;;;10162728;28;20062;-67
2023/09/04 05:01:56;;;;;;;5.53;3.05;;;20.00;99.90;;;;;;10170302;28;20028;-66
2023/09/04 05:06:46;;;;;;;3.60;2.35;;;19.90;99.90;;;;;;10176159;28;20462;-67
2023/09/04 05:11:37;;;;;;;3.58;2.58;;;19.90;99.90;;;;;;10181312;28;20108;-66
2023/09/04 05:16:28;;;;;;;6.03;2.58;;;20.00;99.90;;;;;;10183550;28;20045;-66
2023/09/04 05:21:20;;;;;;;3.85;2.75;;;20.00;99.90;;;;;;10182485;28;20023;-67
2023/09/04 05:26:11;;;;;;;4.05;2.45;;;20.00;99.90;;;;;;10175099;28;20040;-66
2023/09/04 05:31:03;;;;;;;3.50;2.70;;;19.90;99.90;;;;;;10141368;28;20027;-66
2023/09/04 05:35:57;;;;;;;3.67;2.22;;;19.80;99.90;;;;;;10159116;28;20020;-66
2023/09/04 05:40:49;;;;;;;5.78;3.25;;;19.80;99.90;;;;;;10179001;28;20039;-65
2023/09/04 05:45:39;;;;;;;6.32;2.75;;;19.70;99.90;;;;;;10170874;28;20168;-66
2023/09/04 05:50:30;;;;;;;3.85;2.17;;;19.80;99.90;;;;;;10181980;28;20123;-67
2023/09/04 05:55:20;;;;;;;3.78;2.15;;;19.80;99.90;;;;;;10181059;28;20039;-66
2023/09/04 06:00:12;;;;;;;3.17;2.35;;;19.90;99.90;;;;;;10177425;28;20491;-68
2023/09/04 06:05:03;;;;;;;3.55;2.55;;;19.90;99.90;;;;;;10180717;28;20028;-66
2023/09/04 06:09:54;;;;;;;3.83;2.78;;;19.80;99.90;;;;;;10177439;28;20035;-66
2023/09/04 06:14:44;;;;;;;3.70;2.15;;;19.80;99.90;;;;;;10173037;28;20425;-65
2023/09/04 06:19:35;;;;;;;3.17;2.45;;;19.90;99.90;;;;;;10173841;28;20032;-65
2023/09/04 06:24:25;;;;;;;3.53;2.58;;;19.80;99.90;;;;;;10174989;28;20134;-65
2023/09/04 06:29:20;;;;;;;3.33;2.58;;;19.90;99.90;;;;;;10177078;28;20028;-67
2023/09/04 06:34:11;;;;;;;5.23;2.23;;;20.10;99.90;;;;;;10152823;28;20119;-66
2023/09/04 06:39:03;;;;;;;3.80;1.88;;;20.20;99.90;;;;;;10169142;28;20111;-66
2023/09/04 06:43:54;;;;;;;4.93;2.83;;;20.30;99.90;;;;;;10168975;28;20039;-66
2023/09/04 06:48:44;;;;;;;3.33;2.60;;;20.20;99.90;;;;;;10173705;28;20034;-67
2023/09/04 06:53:35;;;;;;;3.50;2.20;;;20.30;99.90;;;;;;10153518;28;20024;-67
2023/09/04 06:58:26;;;;;;;2.78;2.08;;;20.30;99.90;;;;;;10174154;28;20036;-67
2023/09/04 07:03:16;;;;;;;3.38;2.50;;;20.30;99.90;;;;;;10176620;28;20016;-67
2023/09/04 07:08:07;;;;;;;4.03;2.38;;;20.30;99.90;;;;;;10174344;28;20088;-67
2023/09/04 07:13:00;;;;;;;3.88;2.13;;;20.40;99.90;;;;;;10173764;28;20023;-67
2023/09/04 07:17:50;;;;;;;4.57;2.72;;;20.40;99.90;;;;;;10174350;28;20533;-65
2023/09/04 07:22:41;;;;;;;3.35;2.35;;;20.40;99.90;;;;;;10175676;28;20043;-66
2023/09/04 07:27:31;;;;;;;3.85;2.38;;;20.40;99.90;;;;;;10175690;28;20055;-66
2023/09/04 07:32:22;;;;;;;3.90;2.15;;;20.50;99.90;;;;;;10171716;28;20026;-66
2023/09/04 07:37:13;;;;;;;3.40;2.33;;;20.50;99.90;;;;;;10167040;28;20115;-66
2023/09/04 07:42:05;;;;;;;3.20;2.25;;;20.50;99.90;;;;;;10174777;28;20031;-66
2023/09/04 07:46:55;;;;;;;3.72;2.35;;;20.50;99.90;;;;;;10167137;28;20112;-66
2023/09/04 07:51:46;;;;;;;4.00;2.85;;;20.50;99.90;;;;;;10160627;28;20024;-66
2023/09/04 07:56:38;;;;;;;5.95;3.08;;;20.60;99.90;;;;;;10177046;28;20028;-65
2023/09/04 08:01:30;;;;;;;3.28;2.72;;;20.70;99.90;;;;;;10178571;28;20614;-66
2023/09/04 08:06:21;;;;;;;4.55;2.10;;;20.60;99.90;;;;;;10173347;28;20032;-66
2023/09/04 08:11:11;;;;;;;3.05;2.00;;;20.70;99.90;;;;;;10167164;28;20027;-65
2023/09/04 08:16:02;;;;;;;3.67;2.40;;;20.80;99.90;;;;;;10175235;28;20044;-66
2023/09/04 08:20:52;;;;;;;2.90;2.05;;;20.90;99.90;;;;;;10175644;28;20590;-66
2023/09/04 08:25:43;;;;;;;3.40;1.98;;;21.00;99.90;;;;;;10170853;28;20048;-67
2023/09/04 08:30:34;;;;;;;3.35;2.05;;;20.90;99.90;;;;;;10168802;28;20048;-66
2023/09/04 08:35:28;;;;;;;3.08;2.22;;;21.00;99.90;;;;;;10172173;28;20486;-67
2023/09/04 08:40:19;;;;;;;3.23;2.10;;;21.10;99.90;;;;;;10170741;28;20086;-67
2023/09/04 08:45:10;;;;;;;3.70;1.88;;;21.20;99.90;;;;;;10179062;28;20387;-67
2023/09/04 08:50:01;;;;;;;4.72;2.42;;;21.30;99.90;;;;;;10163679;28;20096;-67
2023/09/04 08:54:52;;;;;;;3.55;2.05;;;21.40;99.90;;;;;;10177373;28;20070;-66
2023/09/04 08:59:42;;;;;;;2.85;2.17;;;21.40;99.90;;;;;;10162189;28;20478;-66
2023/09/04 09:04:34;;;;;;;3.42;2.10;;;21.40;99.90;;;;;;10178483;28;20046;-67
2023/09/04 09:09:25;;;;;;;2.95;2.00;;;21.50;99.90;;;;;;10178214;28;20036;-67
2023/09/04 09:14:16;;;;;;;3.45;2.60;;;21.60;99.90;;;;;;10180814;28;20032;-66
2023/09/04 09:19:10;;;;;;;3.40;2.05;;;21.60;99.90;;;;;;10180783;28;20020;-67
2023/09/04 09:24:08;;;;;;;5.43;2.20;;;21.70;99.90;;;;;;10180671;28;20075;-66
2023/09/04 09:29:02;;;;;;;6.63;3.08;;;21.70;99.90;;;;;;10175379;28;20031;-66
2023/09/04 09:33:53;;;;;;;5.23;2.77;;;21.80;99.90;;;;;;10176802;28;20494;-67
2023/09/04 09:38:46;;;;;;;3.17;1.80;;;21.90;99.90;;;;;;10188569;28;20036;-66
2023/09/04 09:43:37;;;;;;;2.78;2.05;;;21.90;99.90;;;;;;10174693;28;20355;-66
2023/09/04 09:48:28;;;;;;;1.83;1.40;;;22.00;99.90;;;;;;10176123;28;20063;-66
2023/09/04 09:53:19;;;;;;;4.10;1.88;;;22.10;99.90;;;;;;10177067;28;20055;-67
2023/09/04 09:58:11;;;;;;;3.28;1.92;;;22.20;99.90;;;;;;10177510;28;20027;-67
2023/09/04 10:03:02;;;;;;;9.30;2.92;;;22.20;99.90;;;;;;10160639;28;20012;-66
2023/09/04 10:08:00;;;;;;;3.33;2.10;;;22.30;99.90;;;;;;10166040;28;20083;-67
2023/09/04 10:13:04;;;;;;;2.00;1.80;;;22.30;99.90;;;;;;10178504;28;20020;-66
2023/09/04 10:18:00;;;;;;;2.67;2.08;;;22.40;99.90;;;;;;10178125;28;20127;-66
2023/09/04 10:23:08;;;;;;;2.65;1.80;;;22.50;99.90;;;;;;10177915;28;20058;-66
2023/09/04 10:28:06;;;;;;;3.88;2.83;;;22.50;99.90;;;;;;10181660;28;20051;-66
2023/09/04 10:32:59;;;;;;;4.63;2.00;;;22.50;99.90;;;;;;10175987;28;20577;-66
2023/09/04 10:37:50;;;;;;;5.28;2.72;;;22.70;99.90;;;;;;10174220;28;20035;-66
2023/09/04 10:42:41;;;;;;;3.45;1.85;;;22.70;99.90;;;;;;10177685;28;20035;-66
2023/09/04 10:47:47;;;;;;;3.10;1.75;;;22.80;99.90;;;;;;10176997;28;21351;-65
2023/09/04 10:52:43;;;;;;;;;;;22.90;99.90;;;;;;10176191;28;20093;-66
2023/09/04 10:57:54;;;;;;;3.83;2.75;;;22.80;99.90;;;;;;10172023;28;19988;-66
2023/09/04 11:02:45;;;;;;;2.60;2.05;;;22.90;99.90;;;;;;10171365;28;20027;-66
2023/09/04 11:07:36;;;;;;;2.95;1.92;;;23.00;99.90;;;;;;10177168;28;20044;-66
2023/09/04 11:12:27;;;;;;;2.03;1.58;;;23.00;99.90;;;;;;10158029;28;20066;-66
2023/09/04 11:17:28;;;;;;;2.80;1.80;;;23.10;99.90;;;;;;10165285;28;20035;-66
2023/09/04 11:22:26;;;;;;;2.70;1.70;;;23.00;99.90;;;;;;10167099;28;20036;-68
2023/09/04 11:27:17;;;;;;;1.92;1.35;;;23.20;99.90;;;;;;10163777;28;20028;-67
2023/09/04 11:32:07;;;;;;;2.30;1.95;;;23.40;99.90;;;;;;10168999;28;20081;-67
2023/09/04 11:36:58;;;;;;;3.10;1.90;;;23.50;99.90;;;;;;10148858;28;20028;-68
2023/09/04 11:41:51;;;;;;;2.65;2.05;;;23.60;99.90;;;;;;10171846;28;20391;-67
2023/09/04 11:46:43;;;;;;;3.13;1.55;;;23.50;99.90;;;;;;10175368;28;20133;-67
2023/09/04 11:51:37;;;;;;;3.10;1.40;;;23.60;99.90;;;;;;10175731;28;20032;-67
2023/09/04 11:56:27;;;;;;;2.15;1.42;;;23.60;99.90;;;;;;10168064;28;20035;-67
2023/09/04 12:01:18;;;;;;;2.80;1.95;;;23.90;99.90;;;;;;10175497;28;20028;-68
2023/09/04 12:06:10;;;;;;;2.25;1.35;;;23.90;99.90;;;;;;10174535;28;20046;-67
2023/09/04 12:11:01;;;;;;;2.70;1.48;;;24.20;99.90;;;;;;10174781;28;20040;-65
2023/09/04 12:15:52;;;;;;;1.83;1.33;;;24.20;99.90;;;;;;10173569;28;20043;-66
2023/09/04 12:20:44;;;;;;;1.60;1.50;;;24.40;99.90;;;;;;10183000;28;20488;-66
2023/09/04 12:25:40;;;;;;;2.60;1.42;;;24.80;99.90;;;;;;10177143;28;20059;-66
2023/09/04 12:30:37;;;;;;;3.63;2.25;;;24.90;99.90;;;;;;10179652;28;20031;-66
2023/09/04 12:35:30;;;;;;;2.45;1.23;;;24.90;99.90;;;;;;10180543;28;20417;-66
2023/09/04 12:40:21;;;;;;;2.15;1.50;;;24.80;99.90;;;;;;10178079;28;20024;-67
2023/09/04 12:45:12;;;;;;;3.25;2.20;;;24.80;99.90;;;;;;10180862;28;20509;-67
2023/09/04 12:50:04;;;;;;;4.85;2.30;;;24.80;99.90;;;;;;10173929;28;20052;-65
2023/09/04 12:54:55;;;;;;;3.15;1.40;;;25.10;99.90;;;;;;10170496;28;20028;-67
2023/09/04 12:59:45;;;;;;;2.80;1.95;;;25.50;99.90;;;;;;10178920;28;20024;-67
2023/09/04 13:04:36;;;;;;;1.73;1.27;;;25.50;99.90;;;;;;10178586;28;20036;-66
2023/09/04 13:09:26;;;;;;;3.15;1.67;;;25.70;99.90;;;;;;10182288;28;20024;-66
2023/09/04 13:14:17;;;;;;;1.67;1.35;;;25.90;99.90;;;;;;10181914;28;20235;-66
2023/09/04 13:19:08;;;;;;;2.83;1.98;;;26.00;99.90;;;;;;10181610;28;20024;-66
2023/09/04 13:24:00;;;;;;;5.05;1.98;;;26.20;99.90;;;;;;10176376;28;20130;-65
2023/09/04 13:28:50;;;;;;;2.80;1.95;;;26.20;99.90;;;;;;10178960;28;20273;-66
2023/09/04 13:33:41;;;;;;;4.10;2.28;;;26.50;99.90;;;;;;10180125;28;20051;-66
2023/09/04 13:38:32;;;;;;;2.25;1.73;;;26.50;99.90;;;;;;10177273;28;20395;-67
2023/09/04 13:43:22;;;;;;;3.97;1.80;;;26.60;99.90;;;;;;10169403;28;20393;-66
2023/09/04 13:48:13;;;;;;;5.07;2.10;;;27.00;99.90;;;;;;10164586;28;20040;-66
2023/09/04 13:53:04;;;;;;;4.10;1.80;;;27.00;99.90;;;;;;10159734;28;20036;-66
2023/09/04 13:57:55;;;;;;;3.13;1.33;;;27.30;99.90;;;;;;10171829;28;20539;-66
2023/09/04 14:02:45;;;;;;;2.33;1.67;;;27.60;99.90;;;;;;10174899;28;20035;-66
2023/09/04 14:07:37;;;;;;;2.72;1.92;;;27.80;99.90;;;;;;10168113;28;20043;-67
2023/09/04 14:12:29;;;;;;;4.60;2.30;;;27.90;99.90;;;;;;10178105;28;20032;-67
2023/09/04 14:17:19;;;;;;;3.03;1.73;;;27.90;99.90;;;;;;10178056;28;20024;-66
2023/09/04 14:22:10;;;;;;;2.50;1.98;;;28.10;99.90;;;;;;10178191;28;20441;-66
2023/09/04 14:27:00;;;;;;;4.47;1.80;;;28.30;99.90;;;;;;10174881;28;20405;-65
2023/09/04 14:31:51;;;;;;;2.90;1.83;;;28.60;99.70;;;;;;10174762;28;20028;-65
2023/09/04 14:36:42;;;;;;;3.13;1.70;;;28.70;99.60;;;;;;10171629;28;20541;-66
2023/09/04 14:41:33;;;;;;;2.03;1.52;;;29.20;99.20;;;;;;10175441;28;20028;-66
2023/09/04 14:46:24;;;;;;;3.40;1.90;;;29.20;99.10;;;;;;10177415;28;20093;-66
2023/09/04 14:51:15;;;;;;;4.43;2.78;;;29.40;98.90;;;;;;10172959;28;20617;-67
2023/09/04 14:56:06;;;;;;;8.55;2.67;;;29.50;98.90;;;;;;10170266;28;20237;-66
2023/09/04 15:00:57;;;;;;;5.30;1.70;;;29.60;98.90;;;;;;10174786;28;20024;-66
2023/09/04 15:05:48;;;;;;;3.53;1.98;;;30.00;98.30;;;;;;10152711;28;20046;-65
2023/09/04 15:10:39;;;;;;;2.97;2.08;;;30.00;98.30;;;;;;10176948;28;20473;-66
2023/09/04 15:15:30;;;;;;;3.45;2.00;;;30.10;98.20;;;;;;10176364;28;20027;-67
2023/09/04 15:20:21;;;;;;;4.10;2.78;;;30.20;98.10;;;;;;10169154;28;20020;-66
2023/09/04 15:25:12;;;;;;;5.07;2.33;;;30.50;97.90;;;;;;10169895;28;20063;-66
2023/09/04 15:30:03;;;;;;;5.15;2.80;;;30.60;97.80;;;;;;10171267;28;20093;-66
2023/09/04 15:34:54;;;;;;;3.20;2.17;;;30.60;97.80;;;;;;10177912;28;20027;-66
2023/09/04 15:39:44;;;;;;;6.75;2.10;;;30.80;97.60;;;;;;10176544;28;20070;-67
2023/09/04 15:44:35;;;;;;;2.92;2.00;;;30.90;97.50;;;;;;10157247;28;20059;-66
2023/09/04 15:49:26;;;;;;;2.60;2.13;;;31.00;97.30;;;;;;10175410;28;20607;-66
2023/09/04 15:54:16;;;;;;;2.65;2.40;;;31.10;97.20;;;;;;10162981;28;20037;-66
2023/09/04 15:59:07;;;;;;;4.03;2.15;;;31.20;97.10;;;;;;10176109;28;20054;-67
2023/09/04 16:03:58;;;;;;;2.70;1.75;;;31.20;96.90;;;;;;10175166;28;20028;-67
2023/09/04 16:08:49;;;;;;;4.00;2.40;;;31.30;96.80;;;;;;10171037;28;20129;-67
2023/09/04 16:13:39;;;;;;;3.80;2.70;;;31.50;96.70;;;;;;10174920;28;20067;-66
2023/09/04 16:18:30;;;;;;;2.95;2.13;;;32.00;96.30;;;;;;10170893;28;20549;-67
2023/09/04 16:23:22;;;;;;;3.30;2.08;;;32.00;96.10;;;;;;10172124;28;20134;-66
2023/09/04 16:28:12;;;;;;;2.00;1.80;;;32.10;95.90;;;;;;10146117;28;20494;-66
2023/09/04 16:33:10;;;;;;;3.30;2.08;;;32.20;95.90;;;;;;10175237;28;20028;-67
2023/09/04 16:38:01;;;;;;;2.63;1.70;;;32.10;95.70;;;;;;10178945;28;20115;-66
2023/09/04 16:42:52;;;;;;;5.43;1.98;;;32.00;95.50;;;;;;10175474;28;20376;-66
2023/09/04 16:47:42;;;;;;;3.25;2.13;;;31.90;95.40;;;;;;10156107;28;20076;-67
2023/09/04 16:52:33;;;;;;;2.38;1.90;;;31.80;95.20;;;;;;10167115;28;20466;-67
2023/09/04 16:57:24;;;;;;;3.45;2.13;;;31.80;95.00;;;;;;10172821;28;20126;-67
2023/09/04 17:02:17;;;;;;;4.43;2.08;;;31.80;94.80;;;;;;10178491;28;20123;-67
2023/09/04 17:07:08;;;;;;;3.07;2.17;;;31.90;94.60;;;;;;10180638;28;20036;-66
2023/09/04 17:11:58;;;;;;;3.53;2.45;;;31.90;94.40;;;;;;10163055;28;20265;-67
2023/09/04 17:16:50;;;;;;;2.97;2.28;;;31.60;94.40;;;;;;10179835;28;20043;-65
2023/09/04 17:21:40;;;;;;;3.67;2.00;;;31.20;94.40;;;;;;10180602;28;20040;-66
2023/09/04 17:26:31;;;;;;;5.03;2.22;;;30.80;94.40;;;;;;10180022;28;20051;-66
2023/09/04 17:31:22;;;;;;;3.40;1.90;;;30.60;94.40;;;;;;10180951;28;20082;-66
2023/09/04 17:36:12;;;;;;;3.60;2.35;;;30.50;94.40;;;;;;10189154;28;20020;-67
2023/09/04 17:41:07;;;;;;;1.95;1.70;;;30.30;94.40;;;;;;10180152;28;20028;-66
2023/09/04 17:45:58;;;;;;;5.43;2.45;;;30.20;94.40;;;;;;10175797;28;20068;-66
2023/09/04 17:50:48;;;;;;;4.70;2.10;;;30.10;94.50;;;;;;10180132;28;20036;-66
2023/09/04 17:55:40;;;;;;;3.33;2.03;;;29.90;94.40;;;;;;10156434;28;20032;-66
2023/09/04 18:00:31;;;;;;;4.55;2.00;;;29.80;94.30;;;;;;10178375;28;20116;-66
2023/09/04 18:05:22;;;;;;;2.67;2.05;;;29.70;94.20;;;;;;10177880;28;20111;-67
2023/09/04 18:10:13;;;;;;;3.80;1.83;;;29.60;94.10;;;;;;10178623;28;20016;-66
2023/09/04 18:15:04;;;;;;;2.40;1.85;;;29.60;94.10;;;;;;10147558;28;20051;-67
2023/09/04 18:19:55;;;;;;;3.42;2.42;;;29.50;94.00;;;;;;10167550;28;20031;-66
2023/09/04 18:24:45;;;;;;;3.58;2.03;;;29.40;93.90;;;;;;10168099;28;20554;-66
2023/09/04 18:29:37;;;;;;;2.50;1.92;;;29.40;93.90;;;;;;10178652;28;20115;-67
2023/09/04 18:34:27;;;;;;;3.50;2.38;;;29.40;93.80;;;;;;10179703;28;20039;-67
2023/09/04 18:39:18;;;;;;;2.58;1.60;;;29.20;93.70;;;;;;10185001;28;20114;-66
2023/09/04 18:44:09;;;;;;;5.15;2.85;;;29.20;93.70;;;;;;10175720;28;20048;-70
2023/09/04 18:48:59;;;;;;;3.25;2.22;;;29.20;93.60;;;;;;10177758;28;20569;-70
2023/09/04 18:53:50;;;;;;;2.72;2.03;;;29.10;93.50;;;;;;10176748;28;20520;-72
2023/09/04 18:58:41;;;;;;;3.00;1.98;;;29.00;93.50;;;;;;10171654;28;20433;-70
2023/09/04 19:03:32;;;;;;;2.75;2.17;;;29.10;93.40;;;;;;10176936;28;20039;-73
2023/09/04 19:08:32;;;;;;;3.75;2.40;;;29.00;93.40;;;;;;10176795;28;20548;-71
2023/09/04 19:13:23;;;;;;;4.07;2.80;;;29.00;93.30;;;;;;10158721;28;20059;-71
2023/09/04 19:18:14;;;;;;;3.40;1.98;;;28.90;93.20;;;;;;10151394;28;20025;-71
2023/09/04 19:23:04;;;;;;;2.92;1.92;;;28.90;93.30;;;;;;10169919;28;20045;-72
2023/09/04 19:27:55;;;;;;;2.85;2.15;;;28.80;93.20;;;;;;10172023;28;20038;-70
2023/09/04 19:32:47;;;;;;;5.70;2.83;;;28.80;93.20;;;;;;10173466;28;20037;-70
2023/09/04 19:37:37;;;;;;;4.85;2.70;;;28.70;93.20;;;;;;10172912;28;20029;-70
2023/09/04 19:42:28;;;;;;;3.85;2.40;;;28.70;93.20;;;;;;10176094;28;20600;-71
2023/09/04 19:47:19;;;;;;;4.65;2.40;;;28.60;93.20;;;;;;10176787;28;20123;-73
2023/09/04 19:52:13;;;;;;;3.05;2.55;;;28.50;93.30;;;;;;10165811;28;20515;-74
2023/09/04 19:57:04;;;;;;;7.75;2.92;;;28.40;93.60;;;;;;10143432;28;20032;-83
2023/09/04 20:01:54;;;;;;;4.45;2.92;;;28.30;93.70;;;;;;10151257;28;20036;-77
2023/09/04 20:06:45;;;;;;;5.70;2.25;;;28.20;93.80;;;;;;10163532;28;20414;-72
2023/09/04 20:11:39;;;;;;;3.65;3.28;;;28.00;93.90;;;;;;10143850;28;20115;-79
2023/09/04 20:16:30;;;;;;;4.22;3.42;;;28.00;93.90;;;;;;10155314;28;20029;-78
2023/09/04 20:21:21;;;;;;;3.97;2.60;;;27.90;94.00;;;;;;10140103;28;20032;-71
2023/09/04 20:26:15;;;;;;;10.35;4.80;;;27.90;94.00;;;;;;10174242;28;20042;-75
2023/09/04 20:31:07;;;;;;;4.72;2.45;;;27.90;94.10;;;;;;10154670;28;20442;-77
2023/09/04 20:35:57;;;;;;;3.63;2.70;;;27.80;94.20;;;;;;10170917;28;20486;-71
2023/09/04 20:40:52;;;;;;;3.25;2.40;;;27.70;94.40;;;;;;10167955;28;20032;-73
2023/09/04 20:45:42;;;;;;;3.10;2.05;;;27.70;94.50;;;;;;10172644;28;20044;-70
2023/09/04 20:50:33;;;;;;;2.92;2.33;;;27.50;94.60;;;;;;10174268;28;20051;-73
2023/09/04 20:55:24;;;;;;;5.53;2.35;;;27.40;94.70;;;;;;10174594;28;20028;-71
2023/09/04 21:00:14;;;;;;;2.83;1.88;;;27.30;94.80;;;;;;10181140;28;20493;-73
2023/09/04 21:05:05;;;;;;;4.53;2.28;;;27.40;94.80;;;;;;10180355;28;20113;-74
2023/09/04 23:23:48;;;;;;;3.63;2.50;;;25.50;96.80;;;;;;10166154;28;20059;-73
2023/09/04 23:28:46;;;;;;;4.00;2.25;;;25.50;96.90;;;;;;10158311;28;20052;-71
2023/09/04 23:33:47;;;;;;;3.47;2.20;;;25.40;97.00;;;;;;10175759;28;20036;-72
2023/09/04 23:45:08;;;;;;;2.80;2.10;;;25.30;97.20;;;;;;10065641;28;20040;-71
2023/09/04 23:49:20;;;;;;;4.30;2.75;;;25.30;97.30;;;;;;10164099;28;20032;-71
2023/09/04 23:54:11;;;;;;;3.00;1.92;;;25.20;97.40;;;;;;10156067;28;20019;-72
2023/09/04 23:59:02;;;;;;;4.43;2.42;;;25.10;97.50;;;;;;10175510;28;20578;-71
